X  Close Metar Aviation Weather Data     ESNL Lycksele Airport
Temperature
11°C Temperature
11°C Dewpoint
100% Humidity



Wind
0 M/S
0 MPH
0 KM/H
0 KTS



Calm
North
Current Conditions

Mostly Scattered Clouds Mostly Scattered Clouds
Pressure 1018.92 (hPa) - 30.09 (inHg)
Visibility 6.2 (mile) - 10 (km)
Airport
Airport-code ESNL

Location: Lycksele Airport
Distance: 35 (km)

Metar:
ESNL 122320Z AUTO 00000KT 9999 SCT001/// OVC004/// 11/11 Q1019

Time: 2020-08-13 01:20 CEST